createdAt,value
2023-01-09T00:00:03.274Z,396.0
2023-01-09T00:05:01.785Z,438.8
2023-01-09T00:10:01.891Z,426.0
2023-01-09T00:20:01.567Z,440.8
2023-01-09T00:25:01.539Z,440.4
2023-01-09T00:35:01.770Z,337.8
2023-01-09T00:40:01.475Z,302.4
2023-01-09T00:50:01.458Z,336.8
2023-01-09T00:55:01.582Z,362.2
2023-01-09T01:00:01.468Z,367.2
2023-01-09T01:05:07.536Z,364.7
2023-01-09T01:10:01.435Z,359.1
2023-01-09T01:15:01.916Z,344.0
2023-01-09T01:20:01.479Z,373.2
2023-01-09T01:25:01.881Z,441.0
2023-01-09T01:30:01.411Z,436.6
2023-01-09T01:35:01.594Z,435.9
2023-01-09T01:40:01.501Z,499.1
2023-01-09T01:50:01.408Z,454.4
2023-01-09T01:55:01.501Z,486.8
2023-01-09T02:00:01.380Z,449.0
2023-01-09T02:05:02.617Z,453.1
2023-01-09T02:10:01.466Z,472.3
2023-01-09T02:15:03.271Z,479.6
2023-01-09T02:20:01.405Z,492.4
2023-01-09T02:40:01.285Z,298.2
2023-01-09T03:00:01.837Z,438.0
2023-01-09T03:20:01.250Z,295.8
2023-01-09T03:25:06.184Z,321.6
2023-01-09T03:35:02.275Z,316.9
2023-01-09T03:40:06.195Z,325.9
2023-01-09T03:45:01.826Z,352.5
2023-01-09T03:50:06.172Z,377.2
2023-01-09T03:55:01.805Z,384.6
2023-01-09T04:00:01.178Z,423.8
2023-01-09T04:05:01.277Z,411.6
2023-01-09T04:10:01.157Z,391.1
2023-01-09T04:15:01.248Z,364.2
2023-01-09T04:20:01.327Z,370.0
2023-01-09T04:25:01.311Z,337.9
2023-01-09T04:35:01.345Z,365.8
2023-01-09T04:40:01.330Z,336.9
2023-01-09T04:45:01.331Z,306.9
2023-01-09T04:50:01.545Z,307.3
2023-01-09T04:55:01.345Z,308.4
2023-01-09T05:00:01.298Z,274.9
2023-01-09T05:05:01.292Z,327.0
2023-01-09T05:10:01.480Z,337.5
2023-01-09T05:20:01.439Z,327.3
2023-01-09T05:25:01.236Z,327.2
2023-01-09T05:30:01.136Z,302.9
2023-01-09T05:35:01.550Z,306.7
2023-01-09T05:40:01.615Z,331.2
2023-01-09T05:50:01.717Z,376.5
2023-01-09T05:55:02.334Z,371.9
2023-01-09T06:00:01.306Z,372.6
2023-01-09T06:05:01.325Z,377.4
2023-01-09T06:10:01.427Z,351.6
2023-01-09T06:15:01.312Z,320.7
2023-01-09T06:20:01.370Z,339.3
2023-01-09T06:25:06.516Z,363.9
2023-01-09T06:30:01.172Z,327.9
2023-01-09T06:35:01.260Z,349.3
2023-01-09T06:40:01.105Z,378.0
2023-01-09T06:45:01.250Z,381.6
2023-01-09T06:50:01.407Z,337.6
2023-01-09T06:55:01.463Z,335.8
2023-01-09T07:00:01.088Z,320.8
2023-01-09T07:05:02.530Z,308.1
2023-01-09T07:10:06.393Z,257.1
2023-01-09T07:20:01.141Z,269.1
2023-01-09T07:25:01.304Z,297.8
2023-01-09T07:30:01.248Z,269.8
2023-01-09T07:35:01.376Z,290.5
2023-01-09T07:45:01.240Z,332.4
2023-01-09T07:50:01.148Z,303.6
2023-01-09T07:55:01.246Z,315.3
2023-01-09T08:00:01.150Z,328.2
2023-01-09T08:05:01.181Z,377.2
2023-01-09T08:10:01.129Z,340.7
2023-01-09T08:15:01.230Z,345.2
2023-01-09T08:20:11.174Z,355.4
2023-01-09T08:30:01.331Z,336.6
2023-01-09T08:35:01.784Z,337.6
2023-01-09T08:40:07.280Z,345.2
2023-01-09T08:45:01.379Z,347.0
2023-01-09T08:50:07.206Z,294.6
2023-01-09T09:00:01.108Z,298.0
2023-01-09T09:05:01.207Z,296.2
2023-01-09T09:10:01.115Z,275.5
2023-01-09T09:15:01.191Z,289.6
2023-01-09T09:20:01.258Z,290.2
2023-01-09T09:25:01.323Z,299.6
2023-01-09T09:30:01.147Z,284.8
2023-01-09T09:35:01.241Z,284.7
2023-01-09T09:40:19.006Z,299.4
2023-01-09T09:45:01.537Z,328.1
2023-01-09T09:50:01.145Z,301.9
2023-01-09T09:55:01.276Z,307.7
2023-01-09T10:00:01.258Z,341.8
2023-01-09T10:05:01.205Z,327.6
2023-01-09T10:10:01.276Z,291.6
2023-01-09T10:15:01.259Z,323.5
2023-01-09T10:20:08.359Z,302.8
2023-01-09T10:25:06.206Z,335.4
2023-01-09T10:35:01.231Z,357.7
2023-01-09T10:40:01.237Z,327.6
2023-01-09T10:45:01.322Z,344.6
2023-01-09T11:00:02.069Z,216.0
2023-01-09T11:05:01.856Z,228.7
2023-01-09T11:10:01.857Z,296.3
2023-01-09T11:30:01.618Z,215.8
2023-01-09T11:35:01.601Z,233.7
2023-01-09T11:40:01.404Z,264.5
2023-01-09T11:45:01.510Z,279.1
2023-01-09T11:50:01.442Z,277.9
2023-01-09T12:10:01.385Z,322.0
2023-01-09T12:30:02.056Z,326.6
2023-01-09T12:35:01.670Z,311.2
2023-01-09T12:50:02.390Z,404.2
2023-01-09T13:10:01.840Z,287.4
2023-01-09T13:15:01.598Z,319.0
2023-01-09T13:20:01.508Z,311.6
2023-01-09T13:25:01.680Z,308.8
2023-01-09T13:40:01.480Z,280.4
2023-01-09T13:45:01.171Z,294.0
2023-01-09T14:00:02.907Z,257.6
2023-01-09T14:20:01.458Z,250.6
2023-01-09T14:25:06.391Z,261.8
2023-01-09T14:30:01.280Z,287.6
2023-01-09T14:50:03.014Z,298.0
2023-01-09T14:55:02.923Z,379.0
2023-01-09T15:05:02.113Z,352.6
2023-01-09T15:10:02.831Z,341.0
2023-01-09T15:20:02.202Z,327.4
2023-01-09T15:25:01.917Z,320.6
2023-01-09T15:40:01.611Z,331.8
2023-01-09T15:45:01.593Z,364.1
2023-01-09T15:50:02.516Z,319.7
2023-01-09T15:55:01.557Z,302.5
2023-01-09T16:00:01.441Z,335.4
2023-01-09T16:20:02.218Z,235.2
2023-01-09T16:40:07.186Z,240.8
2023-01-09T17:00:02.258Z,252.2
2023-01-09T17:05:02.105Z,269.4
2023-01-09T17:10:03.069Z,289.3
2023-01-09T17:20:02.059Z,287.7
2023-01-09T17:25:02.194Z,291.9
2023-01-09T17:30:19.708Z,283.1
2023-01-09T17:35:02.106Z,263.8
2023-01-09T17:40:02.429Z,247.0
2023-01-09T17:50:02.362Z,234.2
2023-01-09T17:55:02.072Z,231.2
2023-01-09T18:00:02.321Z,229.5
2023-01-09T18:05:02.379Z,235.9
2023-01-09T18:10:02.496Z,231.7
2023-01-09T18:20:02.354Z,244.8
2023-01-09T18:25:02.383Z,238.0
2023-01-09T18:30:06.162Z,232.6
2023-01-09T18:35:02.163Z,227.3
2023-01-09T18:45:02.477Z,220.0
2023-01-09T18:50:02.213Z,223.7
2023-01-09T18:55:03.904Z,215.9
2023-01-09T19:00:03.422Z,225.6
2023-01-09T19:05:02.578Z,238.8
2023-01-09T19:10:03.577Z,208.6
2023-01-09T19:20:02.097Z,255.2
2023-01-09T19:25:02.275Z,245.6
2023-01-09T19:35:02.163Z,296.4
2023-01-09T19:40:02.195Z,255.4
2023-01-09T19:45:02.544Z,237.2
2023-01-09T19:50:05.628Z,240.5
2023-01-09T20:00:02.533Z,234.2
2023-01-09T20:05:02.211Z,226.5
2023-01-09T20:10:02.452Z,225.1
2023-01-09T20:15:02.096Z,213.9
2023-01-09T20:20:07.060Z,178.9
2023-01-09T20:35:02.513Z,171.1
2023-01-09T20:40:01.919Z,167.0
2023-01-09T20:50:06.864Z,156.8
2023-01-09T20:55:03.036Z,155.5
2023-01-09T21:00:01.853Z,143.8
2023-01-09T21:10:02.949Z,187.4
2023-01-09T21:20:06.935Z,201.3
2023-01-09T21:25:05.490Z,206.6
2023-01-09T21:30:03.330Z,194.6
2023-01-09T21:35:02.232Z,184.4
2023-01-09T21:40:02.024Z,189.2
2023-01-09T21:45:01.957Z,192.7
2023-01-09T21:55:08.135Z,215.0
2023-01-09T22:00:02.338Z,212.4
2023-01-09T22:05:01.977Z,225.0
2023-01-09T22:10:01.997Z,220.0
2023-01-09T22:20:01.989Z,230.3
2023-01-09T22:25:01.970Z,237.3
2023-01-09T22:35:02.126Z,262.4
2023-01-09T22:40:01.889Z,250.5
2023-01-09T22:50:02.004Z,221.2
2023-01-09T22:55:02.028Z,215.2
2023-01-09T23:00:02.006Z,179.7
2023-01-09T23:05:02.019Z,185.4
2023-01-09T23:15:02.531Z,170.5
2023-01-09T23:25:01.979Z,178.2
2023-01-09T23:35:02.105Z,186.3
2023-01-09T23:40:01.856Z,192.3
2023-01-09T23:45:01.954Z,181.2
2023-01-09T23:50:01.807Z,181.4
